| time (UTC) | temp C | wind direction | speed KPH | gust KPH | rain 1hr cm | rain 24hr cm | rain mn cm | humidity % | barometer mb |
| 20260505153025 | 2 | 339 | 3.2 | 8.0 | 0.00 | 0.76 | 0.36 | 90 | 1015.0 |
| 20260505152514 | 2 | 354 | 4.8 | 8.0 | 0.03 | 0.76 | 0.36 | 90 | 1015.0 |
| 20260505152043 | 2 | 16 | 4.8 | 9.7 | 0.03 | 0.76 | 0.36 | 90 | 1015.1 |
| 20260505151530 | 2 | 29 | 4.8 | 9.7 | 0.03 | 0.76 | 0.36 | 90 | 1015.1 |
| 20260505151022 | 2 | 354 | 4.8 | 8.0 | 0.03 | 0.76 | 0.36 | 90 | 1015.0 |
| 20260505150549 | 2 | 359 | 3.2 | 8.0 | 0.03 | 0.76 | 0.36 | 90 | 1015.1 |
| 20260505140529 | 2 | 17 | 4.8 | 16.1 | 0.03 | 0.74 | 0.33 | 90 | 1015.4 |
| 20260505124550 | 2 | 46 | 6.4 | 19.3 | 0.05 | 0.71 | 0.30 | 89 | 1014.0 |
| 20260505124019 | 2 | 281 | 9.7 | 19.3 | 0.05 | 0.71 | 0.30 | 88 | 1014.1 |
| 20260505123528 | 2 | 318 | 6.4 | 16.1 | 0.05 | 0.71 | 0.30 | 88 | 1013.9 |
| 20260505123020 | 2 | 346 | 11.3 | 16.1 | 0.08 | 0.71 | 0.30 | 88 | 1013.9 |
| 20260505122513 | 3 | 289 | 6.4 | 17.7 | 0.10 | 0.69 | 0.28 | 88 | 1013.9 |
| 20260505122020 | 3 | 310 | 6.4 | 17.7 | 0.13 | 0.69 | 0.28 | 88 | 1013.8 |
| 20260505121529 | 3 | 27 | 11.3 | 17.7 | 0.15 | 0.69 | 0.28 | 88 | 1013.7 |
| 20260505121020 | 3 | 345 | 9.7 | 19.3 | 0.15 | 0.69 | 0.28 | 88 | 1013.7 |
| 20260505120528 | 3 | 341 | 9.7 | 19.3 | 0.15 | 0.69 | 0.28 | 89 | 1013.6 |
| 20260505120020 | 3 | 37 | 11.3 | 19.3 | 0.15 | 0.69 | 0.28 | 89 | 1013.7 |
| 20260505115529 | 3 | 354 | 9.7 | 24.1 | 0.15 | 0.69 | 0.28 | 89 | 1013.5 |
| 20260505115018 | 3 | 48 | 11.3 | 24.1 | 0.15 | 0.69 | 0.28 | 89 | 1013.5 |
| 20260505114525 | 3 | 45 | 14.5 | 22.5 | 0.13 | 0.66 | 0.25 | 88 | 1013.4 |
| 20260505114017 | 3 | 31 | 9.7 | 20.9 | 0.13 | 0.66 | 0.25 | 89 | 1013.4 |
| 20260505113526 | 4 | 21 | 12.9 | 20.9 | 0.10 | 0.64 | 0.23 | 89 | 1013.4 |
| 20260505113016 | 4 | 8 | 6.4 | 20.9 | 0.13 | 0.64 | 0.23 | 88 | 1013.3 |
| 20260505112524 | 4 | 344 | 11.3 | 22.5 | 0.08 | 0.58 | 0.18 | 88 | 1013.2 |
| 20260505112012 | 4 | 359 | 8.0 | 22.5 | 0.05 | 0.56 | 0.15 | 88 | 1013.2 |
| 20260505111542 | 4 | 349 | 9.7 | 20.9 | 0.05 | 0.53 | 0.13 | 87 | 1013.2 |
| 20260505111031 | 5 | 4 | 9.7 | 22.5 | 0.08 | 0.53 | 0.13 | 88 | 1013.0 |
| 20260505110521 | 5 | 47 | 14.5 | 22.5 | 0.08 | 0.53 | 0.13 | 87 | 1013.0 |
| 20260505102024 | 6 | 14 | 12.9 | 22.5 | 0.08 | 0.48 | 0.08 | 88 | 1011.8 |
| 20260505101533 | 6 | 359 | 12.9 | 22.5 | 0.08 | 0.48 | 0.08 | 89 | 1011.8 |
| 20260505101022 | 6 | 359 | 8.0 | 19.3 | 0.05 | 0.46 | 0.05 | 89 | 1011.8 |
| 20260505100514 | 6 | 354 | 11.3 | 17.7 | 0.05 | 0.46 | 0.05 | 89 | 1011.7 |
| 20260505100026 | 6 | 308 | 8.0 | 16.1 | 0.03 | 0.43 | 0.03 | 89 | 1011.4 |
| 20260505095534 | 6 | 345 | 8.0 | 19.3 | 0.03 | 0.43 | 0.03 | 89 | 1011.3 |
| 20260505095022 | 6 | 316 | 6.4 | 17.7 | 0.00 | 0.41 | 0.00 | 89 | 1011.6 |
| 20260505094550 | 6 | 25 | 4.8 | 14.5 | 0.00 | 0.41 | 0.00 | 89 | 1011.5 |
| 20260505094020 | 6 | 345 | 6.4 | 12.9 | 0.00 | 0.41 | 0.00 | 88 | 1011.5 |
| 20260505093528 | 6 | 332 | 8.0 | 12.9 | 0.00 | 0.41 | 0.00 | 88 | 1011.4 |
| 20260505093017 | 6 | 33 | 6.4 | 20.9 | 0.00 | 0.41 | 0.00 | 88 | 1011.5 |
| 20260505092526 | 6 | 308 | 12.9 | 20.9 | 0.00 | 0.41 | 0.00 | 88 | 1011.6 |
| 20260505092015 | 7 | 347 | 6.4 | 20.9 | 0.00 | 0.41 | 0.00 | 87 | 1011.6 |
| 20260505091524 | 7 | 345 | 9.7 | 20.9 | 0.00 | 0.41 | 0.00 | 87 | 1011.4 |
| 20260505091017 | 7 | 359 | 4.8 | 24.1 | 0.00 | 0.41 | 0.00 | 86 | 1011.3 |
| 20260505090526 | 7 | 330 | 9.7 | 25.7 | 0.00 | 0.41 | 0.00 | 85 | 1011.2 |
| 20260505090014 | 8 | 344 | 12.9 | 22.5 | 0.00 | 0.41 | 0.00 | 85 | 1011.0 |
| 20260505085523 | 9 | 335 | 6.4 | 16.1 | 0.00 | 0.41 | 0.00 | 85 | 1010.8 |
| 20260505085031 | 9 | 4 | 1.6 | 11.3 | 0.00 | 0.41 | 0.00 | 87 | 1011.0 |
| 20260505084542 | 9 | 323 | 3.2 | 12.9 | 0.00 | 0.41 | 0.00 | 87 | 1011.0 |
| 20260505084031 | 9 | 324 | 4.8 | 12.9 | 0.00 | 0.41 | 0.00 | 87 | 1011.1 |
| 20260505083520 | 9 | 354 | 4.8 | 6.4 | 0.00 | 0.41 | 0.00 | 87 | 1011.2 |
| 20260505083030 | 9 | 338 | 0.0 | 0.0 | 0.00 | 0.41 | 0.00 | 88 | 1011.2 |
| 20260505082521 | 9 | 329 | 0.0 | 3.2 | 0.00 | 0.41 | 0.00 | 88 | 1011.2 |
| 20260505082014 | 9 | 329 | 1.6 | 3.2 | 0.00 | 0.41 | 0.00 | 87 | 1011.2 |
| 20260505081522 | 9 | 83 | 0.0 | 0.0 | 0.00 | 0.41 | 0.00 | 87 | 1011.3 |
| 20260505081030 | 9 | 131 | 0.0 | 0.0 | 0.00 | 0.41 | 0.00 | 88 | 1011.3 |
| 20260505080520 | 9 | 131 | 0.0 | 0.0 | 0.00 | 0.41 | 0.00 | 88 | 1011.3 |
| 20260505080029 | 9 | 131 | 0.0 | 0.0 | 0.00 | 0.41 | 0.00 | 88 | 1011.2 |
| 20260505075520 | 9 | 131 | 0.0 | 0.0 | 0.00 | 0.41 | 0.00 | 88 | 1011.0 |
| 20260505075028 | 9 | 131 | 0.0 | 0.0 | 0.00 | 0.41 | 0.00 | 88 | 1011.1 |
| 20260505074537 | 9 | 131 | 0.0 | 0.0 | 0.00 | 0.41 | 0.00 | 88 | 1011.1 |
| 20260505074025 | 9 | 131 | 0.0 | 4.8 | 0.00 | 0.41 | 0.00 | 88 | 1011.1 |
| 20260505073517 | 9 | 168 | 0.0 | 4.8 | 0.00 | 0.41 | 0.00 | 88 | 1011.1 |
| 20260505073027 | 9 | 125 | 0.0 | 3.2 | 0.00 | 0.41 | 0.00 | 89 | 1011.3 |
| 20260505072516 | 9 | 216 | 1.6 | 3.2 | 0.00 | 0.41 | 0.00 | 89 | 1011.3 |
| 20260505072024 | 9 | 137 | 0.0 | 0.0 | 0.00 | 0.41 | 0.00 | 88 | 1011.3 |
| 20260505071551 | 9 | 166 | 0.0 | 0.0 | 0.00 | 0.41 | 0.00 | 88 | 1011.5 |
| 20260505071021 | 9 | 165 | 0.0 | 0.0 | 0.00 | 0.41 | 0.00 | 88 | 1011.6 |
| 20260505070530 | 9 | 157 | 0.0 | 1.6 | 0.00 | 0.41 | 0.00 | 88 | 1011.8 |
| 20260505070022 | 9 | 139 | 0.0 | 4.8 | 0.00 | 0.41 | 0.00 | 88 | 1011.7 |
| 20260505065530 | 9 | 139 | 0.0 | 8.0 | 0.00 | 0.41 | 0.00 | 88 | 1011.5 |
| 20260505065020 | 9 | 160 | 4.8 | 8.0 | 0.00 | 0.41 | 0.00 | 88 | 1011.6 |
| 20260505064513 | 9 | 113 | 1.6 | 6.4 | 0.00 | 0.41 | 0.00 | 88 | 1011.6 |
| 20260505064022 | 9 | 210 | 0.0 | 4.8 | 0.00 | 0.41 | 0.00 | 88 | 1011.6 |
| 20260505063532 | 9 | 241 | 1.6 | 8.0 | 0.00 | 0.41 | 0.00 | 88 | 1011.6 |
| 20260505063020 | 9 | 158 | 1.6 | 8.0 | 0.00 | 0.41 | 0.00 | 88 | 1011.6 |
| 20260505062529 | 9 | 132 | 0.0 | 4.8 | 0.00 | 0.41 | 0.00 | 88 | 1011.8 |
| 20260505062020 | 9 | 172 | 1.6 | 8.0 | 0.00 | 0.41 | 0.00 | 88 | 1011.7 |
| 20260505061528 | 9 | 155 | 1.6 | 8.0 | 0.00 | 0.41 | 0.00 | 88 | 1011.8 |
| 20260505061037 | 9 | 155 | 1.6 | 4.8 | 0.00 | 0.41 | 0.00 | 87 | 1011.7 |
| 20260505060524 | 9 | 191 | 1.6 | 4.8 | 0.00 | 0.41 | 0.00 | 88 | 1011.8 |
| 20260505060014 | 9 | 222 | 0.0 | 6.4 | 0.00 | 0.41 | 0.41 | 87 | 1011.7 |
| 20260505055527 | 9 | 236 | 3.2 | 8.0 | 0.00 | 0.41 | 0.41 | 87 | 1011.8 |
| 20260505055015 | 9 | 216 | 1.6 | 9.7 | 0.00 | 0.41 | 0.41 | 87 | 1011.9 |
| 20260505054524 | 9 | 226 | 4.8 | 9.7 | 0.03 | 0.41 | 0.41 | 87 | 1012.2 |
| 20260505054032 | 9 | 193 | 1.6 | 6.4 | 0.03 | 0.41 | 0.41 | 88 | 1011.7 |
| 20260505053521 | 9 | 166 | 1.6 | 4.8 | 0.03 | 0.41 | 0.41 | 88 | 1011.5 |
| 20260505053050 | 9 | 191 | 0.0 | 4.8 | 0.03 | 0.41 | 0.41 | 87 | 1011.6 |
| 20260505052518 | 9 | 189 | 1.6 | 8.0 | 0.03 | 0.41 | 0.41 | 87 | 1011.5 |
| 20260505052027 | 9 | 149 | 0.0 | 6.4 | 0.05 | 0.41 | 0.41 | 87 | 1011.6 |
| 20260505051536 | 9 | 220 | 1.6 | 6.4 | 0.08 | 0.41 | 0.41 | 87 | 1011.6 |
| 20260505051024 | 9 | 168 | 1.6 | 4.8 | 0.08 | 0.41 | 0.41 | 87 | 1011.8 |
| 20260505050552 | 9 | 160 | 0.0 | 3.2 | 0.10 | 0.41 | 0.41 | 86 | 1011.8 |
| 20260505041522 | 9 | 90 | 0.0 | 0.0 | 0.28 | 0.33 | 0.33 | 85 | 1012.4 |
| 20260505041030 | 9 | 12 | 0.0 | 0.0 | 0.30 | 0.33 | 0.33 | 84 | 1012.3 |
| 20260505040525 | 9 | 12 | 0.0 | 0.0 | 0.28 | 0.30 | 0.30 | 84 | 1012.3 |
| 20260505040014 | 9 | 4 | 0.0 | 4.8 | 0.25 | 0.28 | 0.28 | 84 | 1012.3 |
| 20260505035522 | 9 | 322 | 1.6 | 4.8 | 0.25 | 0.28 | 0.28 | 83 | 1012.2 |
| 20260505035011 | 10 | 118 | 0.0 | 8.0 | 0.23 | 0.25 | 0.25 | 83 | 1012.3 |
| 20260505034522 | 10 | 347 | 3.2 | 9.7 | 0.23 | 0.25 | 0.25 | 82 | 1012.2 |
| 20260505034011 | 10 | 292 | 6.4 | 17.7 | 0.20 | 0.23 | 0.23 | 81 | 1012.2 |
| 20260505033522 | 10 | 324 | 8.0 | 17.7 | 0.18 | 0.20 | 0.20 | 79 | 1012.3 |
| 20260505033051 | 10 | 343 | 8.0 | 14.5 | 0.15 | 0.18 | 0.18 | 77 | 1012.3 |
| 20260505032520 | 11 | 354 | 3.2 | 14.5 | 0.13 | 0.15 | 0.15 | 74 | 1012.1 |
| 20260505032049 | 11 | 354 | 6.4 | 19.3 | 0.10 | 0.13 | 0.13 | 70 | 1011.9 |
| 20260505031521 | 12 | 301 | 9.7 | 19.3 | 0.03 | 0.05 | 0.05 | 67 | 1011.7 |
| 20260505031030 | 12 | 4 | 9.7 | 17.7 | 0.00 | 0.03 | 0.03 | 64 | 1011.6 |
| 20260505030519 | 12 | 52 | 3.2 | 8.0 | 0.00 | 0.03 | 0.03 | 64 | 1011.5 |
| 20260505030029 | 12 | 30 | 3.2 | 12.9 | 0.00 | 0.03 | 0.03 | 63 | 1011.2 |
| 20260505025540 | 12 | 26 | 3.2 | 12.9 | 0.00 | 0.03 | 0.03 | 63 | 1011.0 |
| 20260505025027 | 12 | 345 | 3.2 | 9.7 | 0.00 | 0.03 | 0.03 | 63 | 1010.9 |
| 20260505024516 | 12 | 315 | 3.2 | 12.9 | 0.00 | 0.03 | 0.03 | 63 | 1010.7 |
| 20260505024044 | 12 | 4 | 4.8 | 16.1 | 0.00 | 0.03 | 0.03 | 63 | 1010.6 |
| 20260505023552 | 12 | 17 | 4.8 | 16.1 | 0.00 | 0.03 | 0.03 | 62 | 1010.6 |
| 20260505023022 | 12 | 349 | 8.0 | 19.3 | 0.00 | 0.03 | 0.03 | 62 | 1010.5 |
| 20260505022530 | 13 | 4 | 11.3 | 19.3 | 0.00 | 0.03 | 0.03 | 61 | 1010.2 |
| 20260505022019 | 13 | 73 | 0.0 | 1.6 | 0.00 | 0.03 | 0.03 | 60 | 1010.1 |
| 20260505021512 | 12 | 4 | 0.0 | 1.6 | 0.00 | 0.03 | 0.03 | 62 | 1010.1 |
| 20260505021022 | 12 | 4 | 0.0 | 1.6 | 0.00 | 0.03 | 0.03 | 62 | 1010.1 |
| 20260505020531 | 12 | 23 | 0.0 | 0.0 | 0.00 | 0.03 | 0.03 | 60 | 1010.1 |
| 20260505020022 | 12 | 23 | 0.0 | 1.6 | 0.00 | 0.03 | 0.03 | 59 | 1010.4 |
| 20260505015530 | 12 | 23 | 0.0 | 1.6 | 0.00 | 0.03 | 0.03 | 60 | 1010.4 |
| 20260505015020 | 12 | 23 | 0.0 | 6.4 | 0.00 | 0.03 | 0.03 | 60 | 1010.4 |
| 20260505014528 | 12 | 19 | 1.6 | 6.4 | 0.00 | 0.03 | 0.03 | 62 | 1010.0 |
| 20260505014021 | 12 | 66 | 3.2 | 6.4 | 0.03 | 0.03 | 0.03 | 64 | 1009.9 |
| 20260505013513 | 12 | 77 | 3.2 | 6.4 | 0.03 | 0.03 | 0.03 | 64 | 1009.7 |
| 20260505013023 | 12 | 91 | 3.2 | 4.8 | 0.03 | 0.03 | 0.03 | 66 | 1009.8 |
| 20260505012531 | 12 | 29 | 0.0 | 4.8 | 0.03 | 0.03 | 0.03 | 66 | 1009.9 |
| 20260505012019 | 12 | 29 | 0.0 | 4.8 | 0.03 | 0.03 | 0.03 | 67 | 1009.9 |
| 20260505011528 | 12 | 62 | 3.2 | 4.8 | 0.03 | 0.03 | 0.03 | 66 | 1009.7 |
| 20260505011019 | 12 | 23 | 0.0 | 3.2 | 0.03 | 0.03 | 0.03 | 67 | 1009.7 |
| 20260505010528 | 12 | 77 | 0.0 | 4.8 | 0.03 | 0.03 | 0.03 | 65 | 1009.9 |
| 20260505010019 | 13 | 58 | 3.2 | 6.4 | 0.03 | 0.03 | 0.03 | 63 | 1009.9 |
| 20260505005548 | 13 | 159 | 3.2 | 11.3 | 0.03 | 0.03 | 0.03 | 60 | 1009.9 |
| 20260505005015 | 13 | 144 | 4.8 | 16.1 | 0.03 | 0.03 | 0.03 | 56 | 1010.0 |
| 20260505004523 | 14 | 220 | 11.3 | 17.7 | 0.03 | 0.03 | 0.03 | 53 | 1010.5 |
| 20260505004016 | 15 | 222 | 6.4 | 14.5 | 0.00 | 0.00 | 0.00 | 54 | 1010.5 |
| 20260505003545 | 16 | 185 | 8.0 | 14.5 | 0.00 | 0.00 | 0.00 | 46 | 1010.3 |
| 20260505003012 | 16 | 335 | 3.2 | 16.1 | 0.00 | 0.00 | 0.00 | 41 | 1010.2 |
| 20260505002520 | 16 | 345 | 6.4 | 19.3 | 0.00 | 0.00 | 0.00 | 40 | 1010.0 |
| 20260505002029 | 16 | 22 | 6.4 | 17.7 | 0.00 | 0.00 | 0.00 | 40 | 1009.9 |
| 20260505001540 | 16 | 333 | 9.7 | 19.3 | 0.00 | 0.00 | 0.00 | 40 | 1009.7 |
| 20260505001028 | 16 | 331 | 12.9 | 19.3 | 0.00 | 0.00 | 0.00 | 39 | 1009.5 |
| 20260505000517 | 16 | 359 | 9.7 | 16.1 | 0.00 | 0.00 | 0.00 | 38 | 1009.4 |
| 20260505000027 | 17 | 332 | 6.4 | 14.5 | 0.00 | 0.00 | 0.00 | 37 | 1009.2 |
| 20260504235515 | 17 | 289 | 6.4 | 9.7 | 0.00 | 0.00 | 0.00 | 36 | 1009.2 |
| 20260504235024 | 17 | 314 | 3.2 | 12.9 | 0.00 | 0.00 | 0.00 | 36 | 1009.0 |
| 20260504234516 | 17 | 339 | 4.8 | 16.1 | 0.00 | 0.00 | 0.00 | 35 | 1009.0 |
| 20260504234025 | 17 | 301 | 9.7 | 16.1 | 0.00 | 0.00 | 0.00 | 35 | 1009.0 |
| 20260504233514 | 17 | 327 | 6.4 | 16.1 | 0.00 | 0.00 | 0.00 | 35 | 1008.8 |
| 20260504233044 | 17 | 354 | 8.0 | 16.1 | 0.00 | 0.00 | 0.00 | 34 | 1008.9 |
| 20260504232512 | 17 | 354 | 6.4 | 9.7 | 0.00 | 0.00 | 0.00 | 34 | 1008.9 |
| 20260504232022 | 17 | 341 | 4.8 | 20.9 | 0.00 | 0.00 | 0.00 | 35 | 1008.5 |
| 20260504231530 | 17 | 328 | 8.0 | 25.7 | 0.00 | 0.00 | 0.00 | 35 | 1008.5 |
| 20260504231021 | 17 | 8 | 16.1 | 25.7 | 0.00 | 0.00 | 0.00 | 34 | 1008.5 |
| 20260504230530 | 17 | 327 | 8.0 | 22.5 | 0.00 | 0.00 | 0.00 | 33 | 1008.4 |
| 20260504230025 | 18 | 38 | 6.4 | 22.5 | 0.00 | 0.00 | 0.00 | 34 | 1008.2 |
| 20260504225513 | 18 | 330 | 8.0 | 20.9 | 0.00 | 0.00 | 0.00 | 33 | 1008.3 |
| 20260504225022 | 18 | 330 | 8.0 | 20.9 | 0.00 | 0.00 | 0.00 | 32 | 1008.1 |
| 20260504224531 | 18 | 359 | 9.7 | 20.9 | 0.00 | 0.00 | 0.00 | 31 | 1008.1 |
| 20260504224022 | 18 | 320 | 11.3 | 22.5 | 0.00 | 0.00 | 0.00 | 31 | 1008.1 |
| 20260504223530 | 18 | 347 | 12.9 | 22.5 | 0.00 | 0.00 | 0.00 | 31 | 1008.0 |
| 20260504223042 | 18 | 15 | 9.7 | 24.1 | 0.00 | 0.00 | 0.00 | 31 | 1008.0 |
| 20260504222530 | 17 | 8 | 11.3 | 30.6 | 0.00 | 0.00 | 0.00 | 32 | 1007.9 |
| 20260504222021 | 18 | 299 | 19.3 | 30.6 | 0.00 | 0.00 | 0.00 | 32 | 1008.0 |
| 20260504221513 | 18 | 342 | 8.0 | 27.4 | 0.00 | 0.00 | 0.00 | 31 | 1007.8 |
| 20260504221022 | 18 | 289 | 14.5 | 27.4 | 0.00 | 0.00 | 0.00 | 31 | 1007.9 |
| 20260504220512 | 18 | 331 | 11.3 | 29.0 | 0.00 | 0.00 | 0.00 | 31 | 1007.9 |
| 20260504220021 | 18 | 349 | 14.5 | 29.0 | 0.00 | 0.00 | 0.00 | 31 | 1007.5 |
| 20260504215549 | 18 | 302 | 12.9 | 35.4 | 0.00 | 0.00 | 0.00 | 31 | 1007.5 |
| 20260504215019 | 18 | 35 | 20.9 | 35.4 | 0.00 | 0.00 | 0.00 | 30 | 1007.4 |
| 20260504214528 | 19 | 354 | 12.9 | 33.8 | 0.00 | 0.00 | 0.00 | 29 | 1007.3 |
| 20260504214019 | 20 | 12 | 11.3 | 22.5 | 0.00 | 0.00 | 0.00 | 24 | 1007.3 |
| 20260504213528 | 20 | 27 | 8.0 | 20.9 | 0.00 | 0.00 | 0.00 | 24 | 1007.2 |
| 20260504213018 | 20 | 95 | 9.7 | 17.7 | 0.00 | 0.00 | 0.00 | 23 | 1007.4 |
| 20260504212530 | 20 | 92 | 8.0 | 20.9 | 0.00 | 0.00 | 0.00 | 23 | 1007.3 |
| 20260504212019 | 20 | 15 | 6.4 | 20.9 | 0.00 | 0.00 | 0.00 | 23 | 1007.4 |
| 20260504211528 | 20 | 4 | 11.3 | 17.7 | 0.00 | 0.00 | 0.00 | 24 | 1007.5 |
| 20260504211018 | 20 | 16 | 8.0 | 17.7 | 0.00 | 0.00 | 0.00 | 23 | 1007.6 |
| 20260504210526 | 20 | 8 | 8.0 | 19.3 | 0.00 | 0.00 | 0.00 | 24 | 1007.7 |
| 20260504210016 | 20 | 4 | 11.3 | 19.3 | 0.00 | 0.00 | 0.00 | 23 | 1007.8 |
| 20260504205523 | 20 | 246 | 11.3 | 19.3 | 0.00 | 0.00 | 0.00 | 23 | 1007.8 |
| 20260504205012 | 20 | 302 | 11.3 | 24.1 | 0.00 | 0.00 | 0.00 | 24 | 1007.7 |
| 20260504204522 | 20 | 22 | 12.9 | 24.1 | 0.00 | 0.00 | 0.00 | 24 | 1007.8 |
| 20260504204015 | 20 | 341 | 11.3 | 24.1 | 0.00 | 0.00 | 0.00 | 25 | 1007.8 |
| 20260504203524 | 20 | 344 | 11.3 | 24.1 | 0.00 | 0.00 | 0.00 | 25 | 1007.8 |
| 20260504203034 | 19 | 338 | 12.9 | 25.7 | 0.00 | 0.00 | 0.00 | 25 | 1007.8 |
| 20260504202521 | 20 | 348 | 14.5 | 25.7 | 0.00 | 0.00 | 0.00 | 25 | 1007.9 |
| 20260504202028 | 19 | 9 | 8.0 | 20.9 | 0.00 | 0.00 | 0.00 | 25 | 1008.0 |
| 20260504201516 | 19 | 324 | 8.0 | 24.1 | 0.00 | 0.00 | 0.00 | 25 | 1008.0 |
| 20260504201025 | 19 | 35 | 4.8 | 35.4 | 0.00 | 0.00 | 0.00 | 24 | 1007.9 |
| 20260504200513 | 18 | 336 | 12.9 | 35.4 | 0.00 | 0.00 | 0.00 | 26 | 1007.8 |
| 20260504200023 | 18 | 300 | 16.1 | 32.2 | 0.00 | 0.00 | 0.00 | 27 | 1008.0 |
| 20260504195512 | 18 | 335 | 22.5 | 32.2 | 0.00 | 0.00 | 0.00 | 28 | 1008.1 |
| 20260504195042 | 18 | 354 | 14.5 | 24.1 | 0.00 | 0.00 | 0.00 | 27 | 1008.3 |
| 20260504194514 | 18 | 354 | 11.3 | 24.1 | 0.00 | 0.00 | 0.00 | 28 | 1008.4 |
| 20260504194022 | 18 | 316 | 12.9 | 20.9 | 0.00 | 0.00 | 0.00 | 28 | 1008.9 |
| 20260504193531 | 18 | 29 | 9.7 | 19.3 | 0.00 | 0.00 | 0.00 | 28 | 1009.0 |
| 20260504193022 | 18 | 266 | 1.6 | 19.3 | 0.00 | 0.00 | 0.00 | 29 | 1009.1 |
| 20260504192531 | 18 | 239 | 11.3 | 25.7 | 0.00 | 0.00 | 0.00 | 28 | 1009.2 |
| 20260504192021 | 19 | 188 | 11.3 | 25.7 | 0.00 | 0.00 | 0.00 | 30 | 1009.0 |
| 20260504191530 | 20 | 217 | 9.7 | 19.3 | 0.00 | 0.00 | 0.00 | 24 | 1008.7 |
| 20260504191020 | 20 | 203 | 9.7 | 17.7 | 0.00 | 0.00 | 0.00 | 23 | 1008.4 |
| 20260504190529 | 21 | 139 | 3.2 | 11.3 | 0.00 | 0.00 | 0.00 | 21 | 1008.2 |
| 20260504190024 | 21 | 206 | 3.2 | 4.8 | 0.00 | 0.00 | 0.00 | 20 | 1008.2 |
| 20260504185513 | 21 | 341 | 1.6 | 12.9 | 0.00 | 0.00 | 0.00 | 19 | 1008.1 |
| 20260504185022 | 21 | 348 | 4.8 | 12.9 | 0.00 | 0.00 | 0.00 | 20 | 1007.9 |
| 20260504184531 | 21 | 34 | 6.4 | 17.7 | 0.00 | 0.00 | 0.00 | 19 | 1008.0 |
| 20260504184022 | 21 | 354 | 8.0 | 17.7 | 0.00 | 0.00 | 0.00 | 21 | 1007.8 |
| 20260504183531 | 21 | 354 | 9.7 | 17.7 | 0.00 | 0.00 | 0.00 | 21 | 1007.8 |
| 20260504183042 | 21 | 38 | 8.0 | 16.1 | 0.00 | 0.00 | 0.00 | 20 | 1007.8 |
| 20260504182530 | 21 | 354 | 8.0 | 19.3 | 0.00 | 0.00 | 0.00 | 21 | 1007.8 |
| 20260504182019 | 21 | 287 | 8.0 | 14.5 | 0.00 | 0.00 | 0.00 | 21 | 1007.8 |
| 20260504181512 | 21 | 48 | 3.2 | 20.9 | 0.00 | 0.00 | 0.00 | 21 | 1007.8 |
| 20260504181041 | 22 | 359 | 8.0 | 20.9 | 0.00 | 0.00 | 0.00 | 21 | 1007.8 |
| 20260504180529 | 22 | 156 | 3.2 | 9.7 | 0.00 | 0.00 | 0.00 | 21 | 1007.9 |
| 20260504180019 | 22 | 324 | 3.2 | 11.3 | 0.00 | 0.00 | 0.00 | 22 | 1008.0 |
| 20260504175527 | 21 | 241 | 3.2 | 14.5 | 0.00 | 0.00 | 0.00 | 21 | 1007.9 |
| 20260504175016 | 21 | 341 | 4.8 | 14.5 | 0.00 | 0.00 | 0.00 | 21 | 1008.1 |
| 20260504174545 | 22 | 331 | 4.8 | 14.5 | 0.00 | 0.00 | 0.00 | 20 | 1008.3 |
| 20260504174033 | 21 | 344 | 8.0 | 17.7 | 0.00 | 0.00 | 0.00 | 21 | 1008.2 |
| 20260504173522 | 21 | 354 | 11.3 | 17.7 | 0.00 | 0.00 | 0.00 | 20 | 1008.5 |
| 20260504173011 | 22 | 340 | 6.4 | 16.1 | 0.00 | 0.00 | 0.00 | 20 | 1008.5 |
| 20260504172522 | 22 | 10 | 8.0 | 17.7 | 0.00 | 0.00 | 0.00 | 21 | 1008.6 |
| 20260504172013 | 21 | 42 | 6.4 | 17.7 | 0.00 | 0.00 | 0.00 | 21 | 1008.5 |
| 20260504171524 | 22 | 321 | 6.4 | 14.5 | 0.00 | 0.00 | 0.00 | 21 | 1008.5 |
| 20260504171012 | 21 | 88 | 3.2 | 16.1 | 0.00 | 0.00 | 0.00 | 22 | 1008.6 |
| 20260504170521 | 21 | 297 | 9.7 | 16.1 | 0.00 | 0.00 | 0.00 | 20 | 1008.7 |